createdAt,value
2019-02-18T00:01:47.389Z,22.60
2019-02-18T00:04:13.359Z,22.50
2019-02-18T00:06:39.311Z,22.50
2019-02-18T00:09:05.335Z,22.50
2019-02-18T00:11:31.297Z,22.50
2019-02-18T00:13:57.375Z,22.40
2019-02-18T00:16:23.321Z,22.40
2019-02-18T00:18:49.281Z,22.40
2019-02-18T00:21:15.226Z,22.30
2019-02-18T00:23:41.205Z,22.30
2019-02-18T00:26:07.248Z,22.30
2019-02-18T00:28:33.200Z,22.30
2019-02-18T00:30:59.160Z,22.20
2019-02-18T00:33:25.138Z,22.20
2019-02-18T00:35:51.105Z,22.20
2019-02-18T00:38:17.047Z,22.20
2019-02-18T00:40:43.003Z,22.10
2019-02-18T00:43:08.940Z,22.10
2019-02-18T00:45:34.903Z,22.10
2019-02-18T00:48:00.874Z,22.10
2019-02-18T00:50:26.860Z,22.10
2019-02-18T00:52:52.802Z,22.10
2019-02-18T00:55:18.775Z,22.10
2019-02-18T00:57:44.733Z,22.00
2019-02-18T01:00:10.985Z,22.00
2019-02-18T01:02:37.951Z,22.00
2019-02-18T01:05:04.097Z,22.00
2019-02-18T01:07:34.736Z,22.00
2019-02-18T01:09:59.141Z,22.00
2019-02-18T01:12:25.132Z,22.00
2019-02-18T01:14:51.082Z,21.90
2019-02-18T01:17:17.040Z,21.90
2019-02-18T01:19:42.976Z,21.90
2019-02-18T01:22:09.410Z,21.90
2019-02-18T01:24:35.344Z,22.20
2019-02-18T01:27:01.306Z,21.80
2019-02-18T01:29:27.246Z,21.80
2019-02-18T01:31:53.197Z,21.80
2019-02-18T01:34:19.150Z,21.80
2019-02-18T01:36:45.101Z,21.80
2019-02-18T01:39:11.070Z,21.80
2019-02-18T01:41:37.001Z,21.80
2019-02-18T01:44:02.942Z,21.80
2019-02-18T01:46:28.983Z,21.70
2019-02-18T01:48:54.944Z,21.70
2019-02-18T01:51:20.892Z,21.70
2019-02-18T01:53:46.856Z,21.70
2019-02-18T01:56:12.816Z,21.70
2019-02-18T01:58:38.753Z,21.70
2019-02-18T02:01:04.720Z,21.70
2019-02-18T02:03:30.678Z,21.60
2019-02-18T02:05:56.723Z,21.60
2019-02-18T02:08:22.671Z,21.60
2019-02-18T02:10:48.640Z,21.60
2019-02-18T02:13:14.717Z,21.60
2019-02-18T02:15:40.757Z,21.50
2019-02-18T02:18:06.812Z,21.60
2019-02-18T02:20:32.752Z,21.60
2019-02-18T02:22:58.691Z,21.60
2019-02-18T02:25:24.645Z,21.50
2019-02-18T02:27:50.594Z,21.50
2019-02-18T02:30:16.536Z,21.50
2019-02-18T02:32:42.601Z,21.50
2019-02-18T02:35:08.628Z,21.50
2019-02-18T02:37:34.581Z,21.50
2019-02-18T02:40:00.610Z,21.50
2019-02-18T02:42:26.678Z,21.40
2019-02-18T02:44:52.710Z,21.50
2019-02-18T02:47:18.765Z,21.40
2019-02-18T02:49:44.707Z,21.40
2019-02-18T02:52:10.673Z,21.40
2019-02-18T02:54:36.599Z,21.40
2019-02-18T02:57:02.583Z,21.40
2019-02-18T02:59:28.662Z,21.40
2019-02-18T03:01:54.711Z,21.40
2019-02-18T03:04:20.679Z,21.40
2019-02-18T03:06:46.707Z,21.40
2019-02-18T03:09:12.674Z,21.40
2019-02-18T03:11:38.704Z,21.30
2019-02-18T03:14:04.671Z,21.30
2019-02-18T03:16:30.612Z,21.30
2019-02-18T03:18:56.561Z,21.30
2019-02-18T03:21:22.491Z,21.30
2019-02-18T03:23:48.509Z,21.30
2019-02-18T03:26:14.531Z,21.20
2019-02-18T03:28:40.561Z,21.20
2019-02-18T03:31:06.589Z,21.30
2019-02-18T03:33:32.635Z,21.20
2019-02-18T03:35:58.711Z,21.20
2019-02-18T03:38:31.554Z,21.20
2019-02-18T03:41:02.741Z,21.20
2019-02-18T03:43:20.381Z,21.20
2019-02-18T03:45:46.359Z,21.20
2019-02-18T03:48:12.417Z,21.20
2019-02-18T03:50:38.467Z,21.20
2019-02-18T03:53:04.410Z,21.20
2019-02-18T03:55:30.396Z,21.20
2019-02-18T03:57:56.441Z,21.20
2019-02-18T04:00:22.419Z,21.20
2019-02-18T04:02:48.352Z,21.20
2019-02-18T04:05:14.322Z,21.10
2019-02-18T04:07:40.290Z,21.20
2019-02-18T04:10:06.224Z,21.10
2019-02-18T04:12:32.149Z,21.10
2019-02-18T04:14:58.111Z,21.10
2019-02-18T04:17:24.049Z,21.10
2019-02-18T04:19:49.982Z,21.10
2019-02-18T04:22:16.110Z,21.10
2019-02-18T04:24:42.048Z,21.10
2019-02-18T04:27:07.998Z,21.10
2019-02-18T04:29:33.943Z,21.10
2019-02-18T04:31:59.908Z,21.00
2019-02-18T04:34:25.868Z,21.00
2019-02-18T04:36:51.848Z,21.00
2019-02-18T04:39:17.836Z,21.00
2019-02-18T04:41:43.809Z,21.00
2019-02-18T04:44:09.747Z,21.00
2019-02-18T04:46:35.683Z,21.00
2019-02-18T04:49:01.652Z,21.00
2019-02-18T04:51:27.604Z,21.00
2019-02-18T04:53:53.597Z,21.00
2019-02-18T04:56:19.540Z,21.00
2019-02-18T04:58:45.496Z,21.00
2019-02-18T05:01:11.441Z,21.00
2019-02-18T05:03:37.409Z,20.90
2019-02-18T05:06:03.365Z,21.00
2019-02-18T05:08:29.436Z,21.00
2019-02-18T05:10:55.400Z,21.00
2019-02-18T05:13:21.392Z,21.00
2019-02-18T05:15:47.422Z,21.00
2019-02-18T05:18:13.383Z,21.00
2019-02-18T05:20:39.431Z,21.00
2019-02-18T05:23:05.481Z,21.00
2019-02-18T05:25:31.418Z,21.00
2019-02-18T05:27:57.464Z,21.00
2019-02-18T05:30:23.435Z,21.00
2019-02-18T05:32:49.361Z,21.00
2019-02-18T05:35:15.343Z,21.00
2019-02-18T05:37:41.288Z,21.00
2019-02-18T05:40:07.246Z,21.00
2019-02-18T05:42:33.206Z,21.00
2019-02-18T05:44:59.237Z,21.00
2019-02-18T05:47:25.171Z,21.00
2019-02-18T05:49:51.117Z,21.00
2019-02-18T05:52:17.169Z,21.00
2019-02-18T05:54:43.105Z,21.00
2019-02-18T05:57:09.058Z,21.00
2019-02-18T05:59:35.004Z,21.00
2019-02-18T06:02:00.976Z,21.00
2019-02-18T06:04:27.003Z,21.00
2019-02-18T06:06:52.954Z,21.00
2019-02-18T06:09:28.960Z,21.00
2019-02-18T06:11:46.782Z,21.00
2019-02-18T06:14:12.740Z,21.00
2019-02-18T06:16:38.678Z,21.10
2019-02-18T06:19:04.619Z,21.00
2019-02-18T06:21:30.574Z,21.00
2019-02-18T06:23:56.541Z,21.00
2019-02-18T06:26:22.487Z,21.00
2019-02-18T06:28:48.468Z,21.00
2019-02-18T06:31:14.506Z,21.00
2019-02-18T06:33:40.496Z,21.00
2019-02-18T06:36:06.435Z,20.90
2019-02-18T06:38:32.376Z,20.90
2019-02-18T06:40:58.323Z,20.90
2019-02-18T06:43:24.288Z,20.90
2019-02-18T06:45:52.179Z,20.90
2019-02-18T06:48:29.348Z,20.90
2019-02-18T06:50:55.307Z,20.90
2019-02-18T06:53:21.250Z,20.90
2019-02-18T06:55:47.188Z,20.90
2019-02-18T06:58:15.056Z,20.90
2019-02-18T07:00:45.763Z,20.90
2019-02-18T07:03:18.483Z,20.90
2019-02-18T07:05:52.186Z,20.80
2019-02-18T07:08:25.846Z,20.90
2019-02-18T07:10:59.926Z,20.80
2019-02-18T07:13:25.959Z,20.80
2019-02-18T07:15:51.916Z,20.80
2019-02-18T07:18:17.862Z,20.80
2019-02-18T07:20:43.817Z,20.80
2019-02-18T07:23:09.783Z,20.80
2019-02-18T07:25:35.824Z,20.80
2019-02-18T07:28:01.781Z,20.80
2019-02-18T07:30:27.724Z,20.80
2019-02-18T07:32:53.668Z,20.80
2019-02-18T07:35:19.616Z,20.70
2019-02-18T07:37:45.564Z,20.70
2019-02-18T07:40:11.531Z,20.70
2019-02-18T07:42:37.574Z,20.70
2019-02-18T07:45:03.541Z,20.70
2019-02-18T07:47:29.518Z,20.70
2019-02-18T07:49:55.483Z,20.70
2019-02-18T07:52:29.909Z,20.70
2019-02-18T07:54:55.846Z,20.70
2019-02-18T07:57:21.807Z,20.70
2019-02-18T07:59:47.781Z,20.70
2019-02-18T08:02:13.759Z,20.70
2019-02-18T08:04:39.819Z,20.80
2019-02-18T08:07:05.778Z,20.80
2019-02-18T08:09:31.829Z,20.70
2019-02-18T08:11:57.775Z,20.80
2019-02-18T08:14:23.739Z,20.80
2019-02-18T08:16:49.807Z,20.80
2019-02-18T08:19:15.825Z,20.80
2019-02-18T08:21:41.847Z,20.80
2019-02-18T08:24:07.808Z,20.80
2019-02-18T08:26:33.855Z,20.80
2019-02-18T08:28:59.794Z,20.80
2019-02-18T08:31:25.763Z,20.90
2019-02-18T08:33:51.809Z,20.80
2019-02-18T08:36:17.748Z,20.90
2019-02-18T08:38:43.681Z,20.90
2019-02-18T08:41:09.646Z,20.90
2019-02-18T08:43:35.606Z,20.90
2019-02-18T08:46:01.580Z,20.90
2019-02-18T08:48:27.552Z,20.90
2019-02-18T08:50:53.496Z,21.00
2019-02-18T08:53:19.452Z,21.00
2019-02-18T08:55:45.395Z,21.00
2019-02-18T08:58:11.371Z,21.00
2019-02-18T09:00:37.337Z,21.10
2019-02-18T09:03:03.287Z,21.10
2019-02-18T09:05:29.223Z,21.10
2019-02-18T09:07:55.177Z,21.10
2019-02-18T09:10:21.149Z,21.10
2019-02-18T09:12:47.114Z,21.10
2019-02-18T09:15:14.227Z,21.10
2019-02-18T09:17:40.543Z,21.10
2019-02-18T09:20:06.483Z,21.10
2019-02-18T09:22:38.188Z,21.10
2019-02-18T09:25:15.211Z,21.10
2019-02-18T09:27:41.157Z,21.10
2019-02-18T09:30:07.116Z,21.10
2019-02-18T09:32:33.129Z,21.10
2019-02-18T09:35:01.911Z,20.10
2019-02-18T09:37:27.062Z,21.10
2019-02-18T09:39:53.031Z,21.10
2019-02-18T09:42:27.855Z,21.10
2019-02-18T09:44:53.809Z,21.20
2019-02-18T09:47:19.764Z,21.20
2019-02-18T09:49:45.729Z,21.20
2019-02-18T09:52:14.299Z,21.20
2019-02-18T09:54:40.286Z,21.20
2019-02-18T09:57:06.340Z,21.20
2019-02-18T09:59:33.275Z,21.20
2019-02-18T10:01:59.305Z,21.20
2019-02-18T10:04:25.281Z,21.20
2019-02-18T10:06:51.313Z,21.20
2019-02-18T10:09:17.268Z,21.30
2019-02-18T10:11:43.223Z,21.30
2019-02-18T10:14:09.193Z,21.30
2019-02-18T10:16:35.143Z,21.30
2019-02-18T10:19:01.081Z,21.30
2019-02-18T10:21:27.047Z,21.30
2019-02-18T10:23:53.076Z,21.30
2019-02-18T10:26:19.029Z,21.30
2019-02-18T10:28:44.971Z,21.30
2019-02-18T10:31:10.915Z,21.30
2019-02-18T10:33:36.880Z,21.30
2019-02-18T10:36:02.830Z,21.30
2019-02-18T10:38:28.782Z,21.30
2019-02-18T10:40:54.736Z,21.30
2019-02-18T10:43:20.725Z,21.40
2019-02-18T10:45:46.667Z,21.40
2019-02-18T10:48:12.606Z,21.40
2019-02-18T10:50:38.950Z,21.40
2019-02-18T10:53:04.919Z,21.40
2019-02-18T10:55:31.077Z,21.40
2019-02-18T10:57:57.326Z,21.40
2019-02-18T11:00:23.404Z,21.40
2019-02-18T11:02:49.477Z,21.40
2019-02-18T11:05:15.532Z,21.40
2019-02-18T11:07:41.578Z,21.40
2019-02-18T11:10:07.522Z,21.40
2019-02-18T11:12:33.876Z,21.50
2019-02-18T11:14:59.835Z,21.50
2019-02-18T11:17:25.884Z,21.50
2019-02-18T11:19:51.850Z,21.50
2019-02-18T11:22:19.072Z,21.50
2019-02-18T11:24:45.105Z,21.50
2019-02-18T11:27:11.039Z,21.50
2019-02-18T11:29:37.000Z,21.50
2019-02-18T11:32:02.941Z,21.60
2019-02-18T11:34:28.888Z,21.50
2019-02-18T11:36:54.938Z,21.60
2019-02-18T11:39:21.280Z,21.50
2019-02-18T11:41:47.231Z,21.60
2019-02-18T11:44:13.158Z,21.60
2019-02-18T11:46:39.102Z,21.60
2019-02-18T11:49:05.076Z,21.60
2019-02-18T11:51:31.112Z,21.60
2019-02-18T11:53:57.179Z,21.60
2019-02-18T11:56:23.250Z,21.60
2019-02-18T11:58:49.628Z,21.60
2019-02-18T12:01:15.677Z,21.60
2019-02-18T12:03:41.767Z,21.60
2019-02-18T12:06:07.793Z,21.60
2019-02-18T12:08:33.861Z,21.60
2019-02-18T12:10:59.950Z,21.60
2019-02-18T12:13:26.002Z,21.60
2019-02-18T12:15:52.066Z,21.60
2019-02-18T12:18:18.114Z,21.50
2019-02-18T12:20:44.467Z,21.60
2019-02-18T12:23:10.522Z,21.50
2019-02-18T12:25:36.595Z,21.50
2019-02-18T12:28:02.633Z,21.50
2019-02-18T12:30:28.817Z,21.50
2019-02-18T12:32:54.887Z,21.50
2019-02-18T12:35:30.237Z,21.50
2019-02-18T12:37:55.367Z,21.50
2019-02-18T12:40:16.711Z,21.50
2019-02-18T12:42:42.848Z,21.50
2019-02-18T12:45:08.931Z,21.50
2019-02-18T12:47:35.005Z,21.50
2019-02-18T12:50:01.047Z,21.50
2019-02-18T12:52:27.118Z,21.50
2019-02-18T12:54:53.214Z,21.50
2019-02-18T12:57:19.312Z,21.50
2019-02-18T12:59:45.385Z,21.50
2019-02-18T13:02:12.675Z,21.50
2019-02-18T13:04:38.707Z,21.50
2019-02-18T13:07:04.767Z,21.50
2019-02-18T13:09:30.841Z,21.50
2019-02-18T13:11:59.254Z,21.50
2019-02-18T13:14:24.717Z,21.50
2019-02-18T13:16:50.755Z,21.50
2019-02-18T13:19:16.806Z,21.50
2019-02-18T13:21:42.865Z,21.50
2019-02-18T13:24:08.909Z,21.50
2019-02-18T13:26:35.250Z,21.50
2019-02-18T13:29:01.325Z,21.40
2019-02-18T13:31:27.384Z,21.50
2019-02-18T13:33:53.440Z,21.40
2019-02-18T13:36:19.466Z,21.40
2019-02-18T13:38:45.408Z,21.40
2019-02-18T13:41:13.359Z,21.40
2019-02-18T13:43:39.401Z,21.40
2019-02-18T13:46:05.461Z,21.40
2019-02-18T13:48:31.507Z,21.40
2019-02-18T13:50:57.557Z,21.40
2019-02-18T13:53:23.506Z,21.40
2019-02-18T13:55:49.554Z,21.40
2019-02-18T13:58:15.485Z,21.40
2019-02-18T14:00:41.785Z,21.30
2019-02-18T14:03:07.827Z,21.30
2019-02-18T14:05:33.882Z,21.30
2019-02-18T14:08:00.340Z,21.30
2019-02-18T14:10:26.418Z,21.30
2019-02-18T14:12:52.489Z,21.30
2019-02-18T14:15:18.686Z,21.30
2019-02-18T14:17:44.644Z,21.30
2019-02-18T14:20:10.698Z,21.30
2019-02-18T14:22:40.170Z,21.40
2019-02-18T14:25:06.210Z,21.30
2019-02-18T14:27:32.466Z,21.30
2019-02-18T14:29:58.420Z,21.30
2019-02-18T14:32:24.491Z,21.30
2019-02-18T14:34:50.524Z,21.30
2019-02-18T14:37:16.488Z,21.30
2019-02-18T14:39:42.437Z,21.30
2019-02-18T14:42:09.006Z,21.30
2019-02-18T14:44:34.966Z,21.30
2019-02-18T14:47:01.404Z,21.30
2019-02-18T14:49:27.347Z,21.30
2019-02-18T14:51:53.297Z,21.30
2019-02-18T14:54:19.545Z,21.30
2019-02-18T14:56:45.714Z,21.30
2019-02-18T14:59:11.774Z,21.30
2019-02-18T15:01:37.729Z,21.30
2019-02-18T15:04:03.989Z,21.20
2019-02-18T15:06:30.455Z,21.20
2019-02-18T15:08:56.499Z,21.20
2019-02-18T15:11:22.471Z,21.20
2019-02-18T15:13:48.508Z,21.20
2019-02-18T15:16:14.442Z,21.20
2019-02-18T15:18:40.386Z,21.20
2019-02-18T15:21:06.329Z,21.20
2019-02-18T15:23:32.398Z,21.20
2019-02-18T15:25:58.462Z,21.30
2019-02-18T15:28:24.520Z,21.20
2019-02-18T15:30:50.572Z,21.30
2019-02-18T15:33:16.708Z,21.30
2019-02-18T15:35:42.661Z,21.30
2019-02-18T15:38:08.715Z,21.30
2019-02-18T15:40:34.769Z,21.30
2019-02-18T15:43:00.822Z,21.30
2019-02-18T15:45:26.868Z,21.30
2019-02-18T15:48:01.356Z,21.30
2019-02-18T15:50:21.112Z,21.30
2019-02-18T15:52:47.157Z,21.30
2019-02-18T15:55:13.205Z,21.30
2019-02-18T15:57:39.296Z,21.30
2019-02-18T16:00:05.380Z,21.30
2019-02-18T16:02:31.451Z,21.30
2019-02-18T16:04:57.535Z,21.30
2019-02-18T16:07:23.904Z,21.30
2019-02-18T16:09:49.889Z,21.40
2019-02-18T16:12:16.760Z,21.30
2019-02-18T16:14:42.828Z,21.30
2019-02-18T16:17:08.893Z,21.40
2019-02-18T16:19:34.829Z,21.40
2019-02-18T16:22:00.884Z,21.50
2019-02-18T16:24:26.925Z,21.60
2019-02-18T16:26:53.297Z,21.70
2019-02-18T16:29:19.255Z,21.70
2019-02-18T16:31:45.282Z,21.80
2019-02-18T16:34:11.332Z,21.80
2019-02-18T16:36:37.400Z,21.80
2019-02-18T16:39:03.749Z,21.80
2019-02-18T16:41:29.822Z,21.80
2019-02-18T16:43:55.876Z,21.80
2019-02-18T16:46:22.136Z,21.80
2019-02-18T16:48:48.502Z,21.80
2019-02-18T16:51:14.549Z,21.90
2019-02-18T16:53:40.607Z,21.90
2019-02-18T16:56:06.682Z,22.00
2019-02-18T16:58:32.747Z,22.00
2019-02-18T17:00:59.005Z,22.10
2019-02-18T17:03:25.071Z,22.10
2019-02-18T17:05:51.444Z,22.10
2019-02-18T17:08:17.514Z,22.20
2019-02-18T17:10:43.610Z,22.20
2019-02-18T17:13:09.683Z,22.20
2019-02-18T17:15:35.772Z,22.20
2019-02-18T17:18:01.944Z,22.20
2019-02-18T17:20:28.015Z,22.20
2019-02-18T17:22:54.087Z,22.20
2019-02-18T17:25:20.037Z,22.20
2019-02-18T17:27:46.397Z,22.30
2019-02-18T17:30:12.486Z,22.30
2019-02-18T17:32:38.523Z,22.30
2019-02-18T17:35:04.589Z,22.30
2019-02-18T17:37:30.655Z,22.30
2019-02-18T17:39:56.713Z,22.30
2019-02-18T17:42:22.766Z,22.40
2019-02-18T17:44:48.799Z,22.40
2019-02-18T17:47:15.054Z,22.40
2019-02-18T17:49:41.102Z,22.40
2019-02-18T17:52:07.055Z,22.40
2019-02-18T17:54:32.993Z,22.50
2019-02-18T17:56:58.959Z,22.50
2019-02-18T17:59:25.024Z,22.40
2019-02-18T18:01:51.193Z,22.50
2019-02-18T18:04:17.222Z,22.50
2019-02-18T18:06:43.317Z,22.50
2019-02-18T18:09:09.642Z,22.40
2019-02-18T18:11:35.621Z,22.40
2019-02-18T18:14:01.676Z,22.40
2019-02-18T18:16:28.227Z,22.50
2019-02-18T18:18:54.380Z,22.50
2019-02-18T18:21:20.341Z,22.50
2019-02-18T18:23:46.401Z,22.60
2019-02-18T18:26:12.479Z,22.60
2019-02-18T18:28:38.835Z,22.60
2019-02-18T18:31:04.897Z,22.70
2019-02-18T18:33:30.944Z,22.60
2019-02-18T18:35:57.019Z,22.60
2019-02-18T18:38:23.052Z,22.70
2019-02-18T18:40:49.007Z,22.70
2019-02-18T18:43:15.075Z,22.70
2019-02-18T18:45:41.118Z,22.70
2019-02-18T18:48:07.562Z,22.80
2019-02-18T18:50:33.505Z,22.80
2019-02-18T18:52:59.569Z,22.70
2019-02-18T18:55:25.537Z,22.80
2019-02-18T18:57:51.629Z,22.80
2019-02-18T19:00:19.580Z,22.80
2019-02-18T19:02:45.516Z,22.80
2019-02-18T19:05:11.497Z,22.80
2019-02-18T19:07:37.878Z,22.90
2019-02-18T19:10:03.954Z,22.90
2019-02-18T19:12:30.208Z,22.90
2019-02-18T19:14:56.295Z,22.90
2019-02-18T19:17:22.345Z,22.90
2019-02-18T19:19:48.317Z,22.90
2019-02-18T19:22:14.270Z,22.90
2019-02-18T19:24:40.224Z,22.80
2019-02-18T19:27:06.278Z,22.80
2019-02-18T19:29:32.226Z,22.80
2019-02-18T19:31:58.183Z,22.80
2019-02-18T19:34:24.248Z,22.80
2019-02-18T19:36:50.327Z,22.80
2019-02-18T19:39:16.366Z,22.80
2019-02-18T19:41:42.336Z,22.80
2019-02-18T19:44:08.382Z,22.90
2019-02-18T19:46:34.362Z,22.90
2019-02-18T19:49:00.324Z,23.00
2019-02-18T19:51:26.408Z,23.00
2019-02-18T19:53:52.366Z,23.00
2019-02-18T19:56:18.324Z,23.00
2019-02-18T19:58:44.413Z,23.00
2019-02-18T20:01:10.482Z,23.10
2019-02-18T20:03:36.664Z,23.10
2019-02-18T20:06:02.611Z,23.10
2019-02-18T20:08:28.574Z,23.10
2019-02-18T20:10:54.552Z,23.10
2019-02-18T20:13:20.520Z,23.10
2019-02-18T20:15:46.502Z,23.10
2019-02-18T20:18:13.788Z,23.10
2019-02-18T20:20:40.017Z,23.20
2019-02-18T20:23:06.374Z,23.20
2019-02-18T20:25:32.334Z,23.20
2019-02-18T20:27:58.279Z,23.20
2019-02-18T20:30:24.235Z,23.20
2019-02-18T20:32:50.276Z,23.20
2019-02-18T20:35:16.240Z,23.20
2019-02-18T20:37:42.204Z,23.20
2019-02-18T20:40:08.172Z,23.20
2019-02-18T20:42:34.133Z,23.20
2019-02-18T20:45:00.153Z,23.20
2019-02-18T20:47:26.237Z,23.20
2019-02-18T20:49:52.298Z,23.20
2019-02-18T20:52:18.340Z,23.20
2019-02-18T20:54:44.440Z,23.20
2019-02-18T20:57:10.467Z,23.20
2019-02-18T20:59:36.542Z,23.10
2019-02-18T21:02:02.613Z,23.20
2019-02-18T21:04:28.775Z,23.10
2019-02-18T21:06:54.840Z,23.20
2019-02-18T21:09:20.929Z,23.10
2019-02-18T21:11:46.993Z,23.10
2019-02-18T21:14:16.056Z,23.00
2019-02-18T21:16:41.015Z,23.00
2019-02-18T21:19:07.076Z,22.90
2019-02-18T21:21:33.148Z,22.90
2019-02-18T21:23:59.091Z,22.80
2019-02-18T21:26:25.145Z,22.80
2019-02-18T21:28:51.090Z,22.80
2019-02-18T21:31:17.166Z,22.80
2019-02-18T21:33:43.242Z,22.80
2019-02-18T21:36:09.312Z,22.80
2019-02-18T21:38:35.348Z,22.80
2019-02-18T21:41:01.432Z,22.70
2019-02-18T21:43:27.786Z,22.70
2019-02-18T21:45:53.766Z,22.70
2019-02-18T21:48:19.815Z,22.70
2019-02-18T21:50:45.869Z,22.70
2019-02-18T21:53:11.835Z,22.60
2019-02-18T21:55:37.890Z,22.60
2019-02-18T21:58:03.967Z,22.60
2019-02-18T22:00:30.035Z,22.60
2019-02-18T22:02:56.394Z,22.60
2019-02-18T22:05:22.488Z,22.50
2019-02-18T22:07:48.541Z,22.50
2019-02-18T22:10:14.606Z,22.50
2019-02-18T22:12:40.564Z,22.50
2019-02-18T22:15:06.544Z,22.40
2019-02-18T22:17:32.603Z,22.40
2019-02-18T22:19:58.671Z,22.40
2019-02-18T22:22:34.964Z,22.30
2019-02-18T22:25:00.924Z,22.30
2019-02-18T22:27:26.969Z,22.30
2019-02-18T22:29:52.953Z,22.30
2019-02-18T22:32:19.013Z,22.30
2019-02-18T22:34:45.087Z,22.30
2019-02-18T22:37:11.153Z,22.20
2019-02-18T22:39:37.187Z,22.20
2019-02-18T22:42:03.164Z,22.20
2019-02-18T22:44:29.518Z,22.10
2019-02-18T22:46:55.456Z,22.10
2019-02-18T22:49:21.398Z,22.10
2019-02-18T22:51:47.334Z,22.00
2019-02-18T22:54:13.378Z,22.00
2019-02-18T22:56:40.695Z,22.00
2019-02-18T22:59:06.854Z,21.90
2019-02-18T23:01:32.796Z,21.90
2019-02-18T23:03:58.766Z,21.90
2019-02-18T23:06:24.836Z,21.90
2019-02-18T23:08:50.912Z,21.90
2019-02-18T23:11:16.984Z,21.90
2019-02-18T23:13:42.958Z,21.80
2019-02-18T23:16:09.024Z,21.80
2019-02-18T23:18:35.104Z,21.80
2019-02-18T23:21:01.056Z,21.80
2019-02-18T23:23:27.016Z,21.80
2019-02-18T23:25:53.107Z,21.70
2019-02-18T23:28:19.172Z,21.70
2019-02-18T23:30:45.240Z,21.70
2019-02-18T23:33:11.282Z,21.70
2019-02-18T23:35:38.906Z,21.70
2019-02-18T23:38:05.094Z,21.60
2019-02-18T23:40:31.036Z,21.60
2019-02-18T23:42:56.991Z,21.60
2019-02-18T23:45:22.964Z,21.60
2019-02-18T23:47:48.908Z,21.60
2019-02-18T23:50:14.879Z,21.60
2019-02-18T23:52:40.823Z,21.60
2019-02-18T23:55:06.806Z,21.50
2019-02-18T23:57:32.866Z,21.50
2019-02-18T23:59:58.822Z,21.50
